Time;durP1;ratioP1;P1;durP2;ratioP2;P2;SDS_P1;SDS_P2;PMS_P1;PMS_P2;Temp;Humidity;BMP_temperature;BMP_pressure;BME280_temperature;BME280_humidity;BME280_pressure;Samples;Min_cycle;Max_cycle;Signal;HPM_P1;HPM_P2
2022/02/03 00:02:15;;;;;;;8.75;3.33;;;7.80;99.90;;;;;;4982610;28;20018;-67
2022/02/03 00:04:54;;;;;;;5.85;2.65;;;7.80;99.90;;;;;;4984072;28;20027;-67
2022/02/03 00:07:27;;;;;;;4.43;2.80;;;7.80;99.90;;;;;;4986686;28;20125;-67
2022/02/03 00:24:09;;;;;;;14.20;3.55;;;8.00;99.90;;;;;;4981612;28;20045;-67
2022/02/03 00:26:35;;;;;;;5.35;2.85;;;8.00;99.90;;;;;;4989797;28;20493;-67
2022/02/03 00:29:04;;;;;;;9.40;3.67;;;8.00;99.90;;;;;;4987583;28;20027;-67
2022/02/03 00:31:58;;;;;;;9.38;3.95;;;8.00;99.90;;;;;;4986210;28;20022;-67
2022/02/03 00:34:34;;;;;;;5.97;3.03;;;8.00;99.90;;;;;;4986639;28;20041;-67
2022/02/03 00:50:33;;;;;;;10.98;3.90;;;8.00;99.90;;;;;;4981703;28;20082;-67
2022/02/03 00:53:01;;;;;;;10.27;4.28;;;8.00;99.90;;;;;;4983667;28;20042;-67
2022/02/03 00:55:29;;;;;;;8.68;3.40;;;8.00;99.90;;;;;;4987360;28;20023;-67
2022/02/03 00:58:00;;;;;;;13.55;3.30;;;8.00;99.90;;;;;;4981153;28;20066;-67
2022/02/03 01:00:28;;;;;;;15.43;5.20;;;8.00;99.90;;;;;;4983715;28;20014;-67
2022/02/03 01:03:12;;;;;;;12.70;3.63;;;8.00;99.90;;;;;;4979526;28;20034;-67
2022/02/03 01:05:41;;;;;;;3.03;1.83;;;8.00;99.90;;;;;;4980561;28;20026;-67
2022/02/03 01:08:16;;;;;;;13.35;4.65;;;8.00;99.90;;;;;;4987377;28;20322;-67
2022/02/03 01:10:53;;;;;;;9.20;3.50;;;8.00;99.90;;;;;;4982166;28;20109;-67
2022/02/03 01:16:45;;;;;;;17.92;4.30;;;8.10;99.90;;;;;;4985191;28;20390;-67
2022/02/03 01:36:52;;;;;;;9.25;4.32;;;8.20;99.90;;;;;;4986502;28;20069;-68
2022/02/03 01:45:55;;;;;;;13.30;4.72;;;8.20;99.90;;;;;;4987315;28;20521;-67
2022/02/03 01:53:40;;;;;;;15.00;4.45;;;8.30;99.90;;;;;;4988100;28;20041;-67
2022/02/03 01:56:09;;;;;;;11.73;3.72;;;8.30;99.90;;;;;;4980559;28;20035;-67
2022/02/03 01:58:47;;;;;;;12.20;4.60;;;8.30;99.90;;;;;;4987553;28;20026;-67
2022/02/03 02:01:19;;;;;;;8.27;2.63;;;8.30;99.90;;;;;;4984522;28;20022;-68
2022/02/03 02:04:34;;;;;;;13.65;4.70;;;8.30;99.90;;;;;;4985737;28;20102;-67
2022/02/03 02:07:06;;;;;;;13.45;4.20;;;8.30;99.90;;;;;;4941830;28;20042;-68
2022/02/03 02:09:56;;;;;;;17.58;4.82;;;8.30;99.90;;;;;;4982916;28;20081;-68
2022/02/03 02:13:09;;;;;;;11.50;4.65;;;8.30;99.90;;;;;;4986435;28;20056;-68
2022/02/03 02:16:01;;;;;;;12.82;4.40;;;8.30;99.90;;;;;;4956260;28;20035;-67
2022/02/03 02:38:09;;;;;;;7.38;2.83;;;8.40;99.90;;;;;;4985475;28;20032;-67
2022/02/03 02:44:34;;;;;;;8.52;4.35;;;8.40;99.90;;;;;;4988410;28;20057;-67
2022/02/03 02:47:04;;;;;;;17.15;4.85;;;8.30;99.90;;;;;;4982704;28;20497;-67
2022/02/03 02:49:45;;;;;;;14.70;3.50;;;8.30;99.90;;;;;;4985299;28;20050;-67
2022/02/03 02:52:19;;;;;;;9.45;3.95;;;8.40;99.90;;;;;;4986060;28;20122;-67
2022/02/03 02:55:46;;;;;;;10.80;3.95;;;8.40;99.90;;;;;;4987169;28;20085;-67
2022/02/03 03:31:59;;;;;;;10.13;3.25;;;8.40;99.90;;;;;;4975587;28;20050;-68
2022/02/03 03:34:29;;;;;;;14.70;5.15;;;8.40;99.90;;;;;;4979712;28;20117;-68
2022/02/03 03:36:57;;;;;;;17.17;3.85;;;8.40;99.90;;;;;;4986991;28;20347;-68
2022/02/03 03:39:29;;;;;;;6.28;2.45;;;8.50;99.90;;;;;;4983300;28;20116;-68
2022/02/03 03:41:59;;;;;;;11.27;4.40;;;8.40;99.90;;;;;;4986407;28;20462;-68
2022/02/03 03:44:30;;;;;;;17.35;5.78;;;8.50;99.90;;;;;;4987346;28;20018;-68
2022/02/03 03:47:02;;;;;;;16.63;5.13;;;8.50;99.90;;;;;;4986460;28;20034;-68
2022/02/03 03:49:46;;;;;;;10.88;4.75;;;8.50;99.90;;;;;;4982213;28;20031;-68
2022/02/03 03:52:26;;;;;;;10.93;3.85;;;8.40;99.90;;;;;;4987367;28;20101;-68
2022/02/03 03:55:09;;;;;;;11.65;4.07;;;8.50;99.90;;;;;;4982682;28;20027;-68
2022/02/03 03:58:40;;;;;;;7.68;3.88;;;8.40;99.90;;;;;;4986677;28;20029;-68
2022/02/03 04:33:15;;;;;;;10.07;4.03;;;8.30;99.90;;;;;;4985760;28;20121;-68
2022/02/03 04:37:19;;;;;;;9.52;4.22;;;8.30;99.90;;;;;;4984887;28;20062;-68
2022/02/03 05:02:48;;;;;;;13.43;4.97;;;8.30;99.90;;;;;;4989498;28;20446;-68
2022/02/03 05:05:49;;;;;;;22.10;5.47;;;8.40;99.90;;;;;;4988108;28;20105;-68
2022/02/03 05:09:17;;;;;;;17.95;6.28;;;8.30;99.90;;;;;;4993623;28;20038;-68
2022/02/03 05:21:05;;;;;;;16.15;4.65;;;8.40;99.90;;;;;;4987732;28;20033;-68
2022/02/03 05:44:47;;;;;;;10.55;3.33;;;8.10;99.90;;;;;;5001044;28;20631;-67
2022/02/03 05:47:59;;;;;;;8.85;2.85;;;8.10;99.90;;;;;;4998063;28;20093;-67
2022/02/03 06:06:29;;;;;;;6.13;2.17;;;8.00;99.90;;;;;;4984729;28;20043;-67
2022/02/03 06:14:29;;;;;;;4.38;2.20;;;7.90;99.90;;;;;;4986152;28;20049;-67
2022/02/03 06:22:23;;;;;;;7.55;2.85;;;7.90;99.90;;;;;;4988365;28;20394;-67
2022/02/03 06:27:36;;;;;;;4.55;2.20;;;7.90;99.90;;;;;;4995866;28;20419;-67
2022/02/03 06:30:01;;;;;;;3.03;1.55;;;7.80;99.90;;;;;;4990955;28;20101;-67
2022/02/03 06:32:27;;;;;;;4.30;2.10;;;7.80;99.90;;;;;;4996023;28;20109;-67
2022/02/03 06:34:52;;;;;;;7.38;2.47;;;7.80;99.90;;;;;;4993827;28;20552;-67
2022/02/03 06:37:22;;;;;;;5.38;2.38;;;7.80;99.90;;;;;;4997274;28;20027;-67
2022/02/03 06:39:50;;;;;;;6.18;2.53;;;7.80;99.90;;;;;;5000911;28;20030;-67
2022/02/03 06:42:16;;;;;;;6.53;2.58;;;7.80;99.90;;;;;;4998973;28;20018;-67
2022/02/03 06:44:46;;;;;;;4.75;2.08;;;7.80;99.90;;;;;;5000354;28;20075;-67
2022/02/03 06:52:38;;;;;;;1.58;1.05;;;7.80;99.90;;;;;;4995490;28;20065;-67
2022/02/03 06:58:28;;;;;;;4.85;2.65;;;7.80;99.90;;;;;;4990352;28;20391;-67
2022/02/03 07:00:36;;;;;;;8.88;2.50;;;7.80;99.90;;;;;;4996807;28;20042;-68
2022/02/03 07:03:04;;;;;;;6.82;2.55;;;7.80;99.90;;;;;;4997401;28;20022;-67
2022/02/03 07:05:29;;;;;;;4.18;1.92;;;7.70;99.90;;;;;;4992208;28;20022;-67
2022/02/03 07:07:55;;;;;;;4.72;2.38;;;7.70;99.90;;;;;;4995220;28;20056;-67
2022/02/03 07:10:22;;;;;;;2.53;1.27;;;7.80;99.90;;;;;;4994604;28;20032;-67
2022/02/03 07:12:48;;;;;;;6.13;2.55;;;7.70;99.90;;;;;;4997478;28;20030;-67
2022/02/03 07:15:15;;;;;;;12.60;2.20;;;7.70;99.90;;;;;;4991732;28;20088;-67
2022/02/03 07:17:40;;;;;;;2.83;1.67;;;7.70;99.90;;;;;;4989393;28;20442;-67
2022/02/03 07:20:09;;;;;;;2.75;1.65;;;7.70;99.90;;;;;;4989006;28;20023;-67
2022/02/03 07:22:35;;;;;;;5.50;1.80;;;7.70;99.90;;;;;;4991433;28;20022;-67
2022/02/03 07:25:02;;;;;;;6.97;3.08;;;7.70;99.90;;;;;;4985103;28;20497;-67
2022/02/03 07:27:28;;;;;;;3.90;1.92;;;7.70;99.90;;;;;;4986534;28;20018;-67
2022/02/03 07:29:54;;;;;;;7.70;2.53;;;7.70;99.90;;;;;;4978543;28;20035;-67
2022/02/03 07:32:21;;;;;;;10.68;3.58;;;7.70;99.90;;;;;;4986730;28;20107;-67
2022/02/03 07:34:53;;;;;;;8.48;4.38;;;7.70;99.90;;;;;;4984599;28;20031;-67
2022/02/03 07:37:22;;;;;;;10.75;4.93;;;7.60;99.90;;;;;;4989007;28;20026;-67
2022/02/03 07:39:48;;;;;;;2.10;1.38;;;7.60;99.90;;;;;;4987906;28;20029;-67
2022/02/03 07:42:14;;;;;;;3.40;1.48;;;7.60;99.90;;;;;;4986660;28;20537;-67
2022/02/03 07:44:40;;;;;;;7.97;2.30;;;7.70;99.90;;;;;;4985804;28;20108;-67
2022/02/03 07:47:06;;;;;;;6.82;2.90;;;7.70;99.90;;;;;;4985400;28;20482;-67
2022/02/03 07:49:34;;;;;;;4.68;2.10;;;7.70;99.90;;;;;;4983892;28;20027;-68
2022/02/03 07:52:03;;;;;;;11.10;3.03;;;7.80;99.90;;;;;;4983219;28;20026;-68
2022/02/03 07:54:31;;;;;;;4.47;2.28;;;7.70;99.90;;;;;;4990306;28;20431;-67
2022/02/03 07:57:00;;;;;;;7.53;3.10;;;7.80;99.90;;;;;;4988144;28;20351;-67
2022/02/03 07:59:27;;;;;;;7.50;2.85;;;7.80;99.90;;;;;;4983200;28;20029;-67
2022/02/03 08:01:52;;;;;;;7.45;2.78;;;7.70;99.90;;;;;;5001901;28;20387;-67
2022/02/03 08:04:22;;;;;;;4.03;2.58;;;7.70;99.90;;;;;;4983618;28;20027;-67
2022/02/03 08:06:48;;;;;;;3.03;1.70;;;7.70;99.90;;;;;;4994322;28;20046;-67
2022/02/03 08:09:25;;;;;;;2.30;1.38;;;7.70;99.90;;;;;;4984234;28;20037;-67
2022/02/03 08:11:52;;;;;;;5.35;1.83;;;7.80;99.90;;;;;;4987977;28;20091;-67
2022/02/03 08:14:35;;;;;;;7.68;2.78;;;7.70;99.90;;;;;;4987143;28;20243;-67
2022/02/03 08:17:08;;;;;;;4.00;1.80;;;7.70;99.90;;;;;;4984454;28;20095;-68
2022/02/03 08:19:48;;;;;;;6.65;2.20;;;7.70;99.90;;;;;;4992191;28;20022;-67
2022/02/03 08:22:22;;;;;;;;;;;7.70;99.90;;;;;;4978537;28;20540;-67
2022/02/03 08:24:52;;;;;;;18.00;3.17;;;7.70;99.90;;;;;;4982104;28;19917;-67
2022/02/03 08:27:43;;;;;;;4.20;1.73;;;7.70;99.90;;;;;;4986567;28;20015;-67
2022/02/03 08:32:57;;;;;;;4.80;1.80;;;7.80;99.90;;;;;;4995572;28;20449;-67
2022/02/03 08:35:38;;;;;;;4.70;1.98;;;7.70;99.90;;;;;;4992387;28;20013;-67
2022/02/03 08:38:17;;;;;;;6.93;2.20;;;7.70;99.90;;;;;;4992249;28;20034;-67
2022/02/03 08:40:56;;;;;;;14.02;3.38;;;7.70;99.90;;;;;;4989982;28;20367;-68
2022/02/03 08:43:24;;;;;;;7.65;2.83;;;7.70;99.90;;;;;;4987922;28;20022;-68
2022/02/03 08:45:49;;;;;;;7.60;2.22;;;7.70;99.90;;;;;;4991673;28;20022;-68
2022/02/03 08:48:16;;;;;;;6.38;2.35;;;7.80;99.90;;;;;;4987607;28;20026;-68
2022/02/03 08:50:42;;;;;;;10.15;2.65;;;7.80;99.90;;;;;;4984605;28;20050;-68
2022/02/03 08:53:14;;;;;;;8.05;3.50;;;7.70;99.90;;;;;;4990359;28;20583;-68
2022/02/03 09:28:04;;;;;;;4.72;1.98;;;7.70;99.90;;;;;;4983820;28;20042;-68
2022/02/03 09:39:18;;;;;;;3.90;1.80;;;7.90;99.90;;;;;;4987973;28;20061;-68
2022/02/03 09:52:51;;;;;;;6.85;1.88;;;7.80;99.90;;;;;;4989022;28;20501;-68
2022/02/03 09:57:59;;;;;;;4.80;2.22;;;7.90;99.90;;;;;;4986798;28;20030;-68
2022/02/03 10:00:26;;;;;;;5.45;2.50;;;7.80;99.90;;;;;;4993291;28;20022;-68
2022/02/03 10:03:01;;;;;;;7.95;2.83;;;7.80;99.90;;;;;;4990975;28;20030;-68
2022/02/03 10:05:39;;;;;;;5.13;1.92;;;7.80;99.90;;;;;;4986458;28;20026;-68
2022/02/03 10:08:05;;;;;;;3.75;1.75;;;7.80;99.90;;;;;;4990837;28;20105;-68
2022/02/03 10:10:31;;;;;;;8.75;2.95;;;7.90;99.90;;;;;;4988917;28;20034;-68
2022/02/03 10:12:57;;;;;;;7.10;2.45;;;7.90;99.90;;;;;;4987465;28;20036;-68
2022/02/03 10:15:23;;;;;;;6.75;2.50;;;8.00;99.90;;;;;;4986378;28;20026;-68
2022/02/03 10:17:51;;;;;;;6.10;2.25;;;7.90;99.90;;;;;;4985343;28;20035;-68
2022/02/03 10:20:21;;;;;;;8.85;2.78;;;7.90;99.90;;;;;;4983066;28;20499;-68
2022/02/03 10:22:58;;;;;;;3.63;1.70;;;7.90;99.90;;;;;;4987922;28;20097;-68
2022/02/03 10:25:35;;;;;;;4.53;2.20;;;7.90;99.90;;;;;;4986784;28;20722;-68
2022/02/03 10:28:05;;;;;;;6.95;3.30;;;8.00;99.90;;;;;;4986502;28;20031;-68
2022/02/03 10:30:40;;;;;;;2.15;1.48;;;8.00;99.90;;;;;;4988528;28;20403;-68
2022/02/03 10:33:06;;;;;;;9.77;2.75;;;7.90;99.90;;;;;;4990569;28;20027;-68
2022/02/03 10:35:46;;;;;;;10.05;3.22;;;7.90;99.90;;;;;;4987697;28;20026;-68
2022/02/03 10:44:41;;;;;;;5.57;2.35;;;8.00;99.90;;;;;;4984833;28;20450;-68
2022/02/03 10:47:11;;;;;;;7.35;3.00;;;8.00;99.90;;;;;;4989975;28;20406;-68
2022/02/03 11:03:03;;;;;;;9.80;3.45;;;7.60;99.90;;;;;;4981945;28;20125;-67
2022/02/03 11:08:22;;;;;;;6.75;3.08;;;7.50;99.90;;;;;;4981684;28;20108;-67
2022/02/03 11:10:56;;;;;;;4.85;2.13;;;7.40;99.90;;;;;;4985983;28;20027;-67
2022/02/03 11:13:29;;;;;;;8.45;3.45;;;7.40;99.90;;;;;;4985629;28;20379;-67
2022/02/03 11:16:00;;;;;;;7.57;2.85;;;7.40;99.90;;;;;;4988167;28;20038;-67
2022/02/03 11:18:26;;;;;;;4.30;1.88;;;7.30;99.90;;;;;;4990809;28;20150;-67
2022/02/03 11:20:53;;;;;;;3.17;1.25;;;7.30;99.90;;;;;;4988572;28;20542;-68
2022/02/03 11:54:49;;;;;;;6.95;2.53;;;7.20;99.90;;;;;;4982622;28;20393;-67
2022/02/03 12:05:19;;;;;;;10.00;3.22;;;7.10;99.90;;;;;;4986550;28;20037;-68
2022/02/03 12:19:49;;;;;;;11.85;3.72;;;7.20;99.90;;;;;;4993263;28;20045;-68
2022/02/03 12:22:21;;;;;;;5.15;2.67;;;7.20;99.90;;;;;;4979276;28;20062;-68
2022/02/03 12:25:13;;;;;;;6.75;2.40;;;7.30;99.90;;;;;;4982795;28;20552;-68
2022/02/03 12:30:27;;;;;;;4.47;1.83;;;7.40;99.90;;;;;;4985107;28;20010;-68
2022/02/03 12:38:33;;;;;;;1.40;1.10;;;7.30;99.90;;;;;;4981257;28;20045;-68
2022/02/03 12:41:11;;;;;;;7.20;3.03;;;7.20;99.90;;;;;;4982254;28;20480;-68
2022/02/03 12:43:39;;;;;;;10.73;2.33;;;7.20;99.90;;;;;;4983440;28;20113;-67
2022/02/03 12:46:06;;;;;;;4.88;1.88;;;7.20;99.90;;;;;;4986918;28;20229;-67
2022/02/03 12:48:36;;;;;;;6.72;1.92;;;7.20;99.90;;;;;;4985709;28;20058;-67
2022/02/03 12:51:05;;;;;;;;;;;7.20;99.90;;;;;;4988220;28;20387;-67
2022/02/03 12:53:33;;;;;;;1.98;1.30;;;7.20;99.90;;;;;;4985673;28;20423;-67
2022/02/03 12:56:02;;;;;;;3.17;1.48;;;7.10;99.90;;;;;;4983894;28;20027;-67
2022/02/03 12:58:35;;;;;;;8.23;2.25;;;7.10;99.90;;;;;;4985362;28;20498;-67
2022/02/03 13:01:11;;;;;;;3.50;1.67;;;7.10;99.90;;;;;;4985413;28;20030;-66
2022/02/03 13:03:43;;;;;;;3.33;1.45;;;7.10;99.90;;;;;;4984205;28;20026;-66
2022/02/03 13:06:15;;;;;;;5.28;1.80;;;7.00;99.90;;;;;;4988762;28;20420;-66
2022/02/03 13:08:47;;;;;;;3.40;1.55;;;7.00;99.90;;;;;;4991358;28;20074;-66
2022/02/03 13:11:26;;;;;;;6.00;2.17;;;7.10;99.90;;;;;;4988363;28;20245;-66
2022/02/03 13:14:50;;;;;;;6.28;3.15;;;7.00;99.90;;;;;;4987898;28;20461;-66
2022/02/03 13:17:07;;;;;;;1.52;0.95;;;7.00;99.90;;;;;;4992975;28;20103;-66
2022/02/03 13:19:44;;;;;;;1.70;1.08;;;7.10;99.90;;;;;;5003602;28;20034;-66
2022/02/03 13:22:39;;;;;;;6.28;1.75;;;7.10;99.90;;;;;;4986519;28;20027;-68
2022/02/03 13:28:06;;;;;;;4.68;1.90;;;7.30;99.90;;;;;;4965038;28;20042;-66
2022/02/03 13:33:06;;;;;;;2.13;1.13;;;7.50;99.90;;;;;;4991838;28;20146;-66
2022/02/03 13:35:49;;;;;;;4.82;2.25;;;7.50;99.90;;;;;;4994002;28;20022;-67
2022/02/03 13:38:25;;;;;;;2.33;1.13;;;7.50;99.90;;;;;;4986261;28;20153;-66
2022/02/03 13:41:16;;;;;;;2.13;1.05;;;7.50;99.90;;;;;;4994771;28;20168;-66
2022/02/03 13:43:42;;;;;;;;;;;7.50;99.90;;;;;;4986939;28;20022;-66
2022/02/03 13:46:10;;;;;;;5.75;1.88;;;7.40;99.90;;;;;;4991047;28;20415;-66
2022/02/03 13:48:38;;;;;;;2.13;1.25;;;7.30;99.90;;;;;;4982330;28;20487;-66
2022/02/03 13:51:08;;;;;;;4.60;1.98;;;7.30;99.90;;;;;;4985988;28;20031;-66
2022/02/03 13:53:39;;;;;;;5.53;2.25;;;7.30;99.90;;;;;;4986286;28;20221;-66
2022/02/03 14:18:26;;;;;;;9.38;2.10;;;7.10;99.90;;;;;;4985911;28;20027;-66
2022/02/03 14:21:03;;;;;;;6.22;2.47;;;7.00;99.90;;;;;;4988281;28;20045;-66
2022/02/03 14:28:59;;;;;;;7.90;3.35;;;7.00;99.90;;;;;;4992512;28;20397;-66
2022/02/03 14:31:25;;;;;;;3.78;1.38;;;7.00;99.90;;;;;;4984055;28;20030;-66
2022/02/03 14:33:52;;;;;;;7.10;3.03;;;7.10;99.90;;;;;;4989375;28;20098;-66
2022/02/03 14:36:22;;;;;;;3.53;1.83;;;7.10;99.90;;;;;;4992551;28;20410;-66
2022/02/03 14:38:56;;;;;;;2.53;1.08;;;7.10;99.90;;;;;;4983498;28;20490;-66
2022/02/03 14:41:30;;;;;;;4.45;1.85;;;7.20;99.90;;;;;;4992237;28;20398;-67
2022/02/03 14:43:57;;;;;;;2.83;1.42;;;7.20;99.90;;;;;;4990873;28;20026;-67
2022/02/03 14:46:24;;;;;;;2.92;1.60;;;7.30;99.90;;;;;;4986822;28;20031;-66
2022/02/03 14:48:50;;;;;;;1.85;1.27;;;7.30;99.90;;;;;;4990273;28;20107;-66
2022/02/03 14:51:21;;;;;;;5.90;2.10;;;7.30;99.90;;;;;;4991845;28;20470;-66
2022/02/03 14:59:12;;;;;;;2.08;1.15;;;7.30;99.90;;;;;;4984033;28;20108;-66
2022/02/03 15:01:39;;;;;;;3.05;1.48;;;7.30;99.90;;;;;;4989724;28;20026;-67
2022/02/03 15:04:09;;;;;;;4.47;1.67;;;7.30;99.90;;;;;;4993955;28;20049;-67
2022/02/03 15:06:41;;;;;;;4.20;1.70;;;7.40;99.90;;;;;;4988870;28;20125;-67
2022/02/03 15:09:18;;;;;;;4.82;1.85;;;7.40;99.90;;;;;;4984435;28;20031;-67
2022/02/03 15:14:13;;;;;;;5.37;1.97;;;7.40;99.90;;;;;;4995159;28;20026;-67
2022/02/03 15:16:38;;;;;;;2.85;1.67;;;7.30;99.90;;;;;;4992030;28;20045;-67
2022/02/03 15:19:06;;;;;;;4.07;1.83;;;7.30;99.90;;;;;;4988425;28;20034;-66
2022/02/03 15:21:35;;;;;;;3.63;1.90;;;7.30;99.90;;;;;;4990294;28;20022;-67
2022/02/03 15:24:03;;;;;;;4.95;2.08;;;7.20;99.90;;;;;;4988031;28;20030;-67
2022/02/03 15:26:29;;;;;;;6.20;2.50;;;7.20;99.90;;;;;;4986954;28;20018;-67
2022/02/03 15:28:55;;;;;;;3.72;1.75;;;7.20;99.90;;;;;;4993236;28;20083;-68
2022/02/03 15:31:23;;;;;;;3.40;1.83;;;7.10;99.90;;;;;;5006772;28;20082;-67
2022/02/03 15:33:57;;;;;;;1.77;0.95;;;7.10;99.90;;;;;;4988645;28;20070;-68
2022/02/03 15:36:23;;;;;;;4.15;2.35;;;7.00;99.90;;;;;;4991432;28;20549;-68
2022/02/03 15:38:49;;;;;;;5.82;2.25;;;7.00;99.90;;;;;;4989937;28;20037;-67
2022/02/03 15:41:23;;;;;;;2.90;1.48;;;6.90;99.90;;;;;;4987960;28;20084;-68
2022/02/03 15:43:50;;;;;;;6.43;1.73;;;6.90;99.90;;;;;;4996183;28;20052;-68
2022/02/03 15:46:18;;;;;;;4.07;1.85;;;6.90;99.90;;;;;;4996223;28;20491;-68
2022/02/03 15:49:42;;;;;;;3.78;1.67;;;6.80;99.90;;;;;;5004581;28;20519;-68
2022/02/03 15:56:57;;;;;;;2.33;1.48;;;6.70;99.90;;;;;;4995828;28;20410;-67
2022/02/03 16:00:31;;;;;;;5.57;2.03;;;6.70;99.90;;;;;;4992630;28;20605;-67
2022/02/03 16:18:28;;;;;;;2.88;1.58;;;6.70;99.90;;;;;;4987896;28;20050;-67
2022/02/03 16:21:00;;;;;;;1.73;1.15;;;6.70;99.90;;;;;;4986812;28;20113;-67
2022/02/03 16:26:39;;;;;;;6.68;2.33;;;6.70;99.90;;;;;;4983594;28;20022;-67
2022/02/03 16:51:09;;;;;;;10.40;4.38;;;6.60;99.90;;;;;;4991856;28;20608;-67
2022/02/03 16:53:34;;;;;;;6.25;2.95;;;6.60;99.90;;;;;;4988132;28;20042;-67
2022/02/03 16:56:02;;;;;;;7.28;3.05;;;6.50;99.90;;;;;;5000267;28;20046;-68
2022/02/03 16:58:32;;;;;;;4.90;2.50;;;6.50;99.90;;;;;;4988352;28;20034;-67
2022/02/03 17:01:00;;;;;;;11.30;3.78;;;6.50;99.90;;;;;;4989667;28;20055;-67
2022/02/03 17:03:26;;;;;;;6.55;2.67;;;6.40;99.90;;;;;;4990602;28;20556;-67
2022/02/03 17:05:52;;;;;;;6.47;2.75;;;6.50;99.90;;;;;;5000613;28;20034;-67
2022/02/03 17:08:20;;;;;;;6.28;2.30;;;6.30;99.90;;;;;;5001671;28;20041;-67
2022/02/03 17:10:46;;;;;;;3.83;2.20;;;6.30;99.90;;;;;;4977587;28;20035;-67
2022/02/03 17:13:12;;;;;;;6.18;2.25;;;;;;;;;;4987823;28;20026;-67
2022/02/03 17:15:38;;;;;;;7.18;3.22;;;6.30;99.90;;;;;;4991113;28;20177;-67
2022/02/03 17:18:04;;;;;;;10.93;4.57;;;6.30;99.90;;;;;;4988973;28;20046;-68
2022/02/03 17:20:33;;;;;;;7.38;3.33;;;6.30;99.90;;;;;;4988906;28;20033;-68
2022/02/03 17:23:00;;;;;;;12.80;3.40;;;6.30;99.90;;;;;;4986929;28;20018;-68
2022/02/03 17:30:47;;;;;;;16.25;5.60;;;6.40;99.90;;;;;;4986426;28;20580;-68
2022/02/03 18:04:04;;;;;;;5.25;2.60;;;6.30;99.90;;;;;;4993616;28;20490;-67
2022/02/03 19:28:12;;;;;;;7.45;3.50;;;6.20;99.90;;;;;;4988972;28;20389;-67
2022/02/03 20:03:44;;;;;;;5.45;2.67;;;6.30;99.90;;;;;;4992117;28;20053;-67
2022/02/03 20:06:20;;;;;;;8.43;3.78;;;6.30;99.90;;;;;;4984929;28;20038;-68
2022/02/03 20:09:19;;;;;;;4.30;2.13;;;6.30;99.90;;;;;;4983780;28;20379;-68
2022/02/03 20:11:34;;;;;;;6.38;2.35;;;6.30;99.90;;;;;;4992823;28;20534;-68
2022/02/03 20:14:00;;;;;;;8.70;2.67;;;6.30;99.90;;;;;;5012403;28;20033;-68
2022/02/03 20:16:25;;;;;;;8.52;3.60;;;6.40;99.90;;;;;;4993535;28;20022;-68
2022/02/03 20:18:51;;;;;;;6.50;2.90;;;6.40;99.90;;;;;;4985841;28;20100;-68
2022/02/03 20:21:17;;;;;;;7.25;3.67;;;6.40;99.90;;;;;;4988219;28;20062;-68
2022/02/03 20:23:44;;;;;;;13.75;4.32;;;6.40;99.90;;;;;;4989546;28;20022;-68
2022/02/03 20:26:12;;;;;;;8.02;3.60;;;6.40;99.90;;;;;;4988261;28;20124;-67
2022/02/03 20:28:38;;;;;;;6.30;2.47;;;6.40;99.90;;;;;;4994312;28;20309;-67
2022/02/03 20:31:04;;;;;;;8.38;2.88;;;6.50;99.90;;;;;;4992386;28;20325;-67
2022/02/03 20:33:30;;;;;;;6.90;2.75;;;6.50;99.90;;;;;;4991859;28;20034;-67
2022/02/03 20:35:56;;;;;;;5.57;2.85;;;6.50;99.90;;;;;;5008060;28;20035;-67
2022/02/03 20:38:22;;;;;;;9.50;4.03;;;6.50;99.90;;;;;;4988646;28;20082;-67
2022/02/03 20:40:48;;;;;;;8.00;3.20;;;6.50;99.90;;;;;;4987869;28;20066;-67
2022/02/03 20:43:14;;;;;;;5.32;2.92;;;6.50;99.90;;;;;;4991682;28;20482;-67
2022/02/03 20:45:41;;;;;;;9.80;4.05;;;6.50;99.90;;;;;;4993053;28;20382;-67
2022/02/03 20:48:06;;;;;;;7.13;3.42;;;6.40;99.90;;;;;;4994118;28;20022;-67
2022/02/03 20:50:33;;;;;;;11.50;4.57;;;6.40;99.90;;;;;;4992288;28;20474;-67
2022/02/03 20:52:58;;;;;;;7.32;4.35;;;6.50;99.90;;;;;;4990015;28;20026;-67
2022/02/03 20:55:24;;;;;;;10.80;3.33;;;6.40;99.90;;;;;;4991736;28;20084;-67
2022/02/03 20:57:49;;;;;;;8.25;4.35;;;6.40;99.90;;;;;;5003864;28;20584;-67
2022/02/03 21:00:21;;;;;;;6.43;2.83;;;6.40;99.90;;;;;;4993907;28;20115;-68
2022/02/03 21:03:04;;;;;;;5.72;2.35;;;6.40;99.90;;;;;;4993920;28;20035;-67
2022/02/03 21:05:30;;;;;;;7.20;2.28;;;6.30;99.90;;;;;;4994335;28;20015;-67
2022/02/03 21:07:56;;;;;;;14.10;4.57;;;6.30;99.90;;;;;;4991692;28;20039;-67
2022/02/03 21:10:27;;;;;;;9.10;3.45;;;6.30;99.90;;;;;;4985236;28;20053;-67
2022/02/03 21:12:55;;;;;;;8.65;3.58;;;6.40;99.90;;;;;;4992145;28;20034;-67
2022/02/03 21:15:26;;;;;;;8.00;3.67;;;6.30;99.90;;;;;;4982641;28;20022;-67
2022/02/03 21:17:53;;;;;;;12.20;5.03;;;6.40;99.90;;;;;;4983099;28;20035;-67
2022/02/03 21:20:22;;;;;;;13.10;7.18;;;6.30;99.90;;;;;;4989986;28;20076;-67
2022/02/03 21:22:48;;;;;;;19.70;5.03;;;6.40;99.90;;;;;;4989656;28;20412;-67
2022/02/03 21:25:23;;;;;;;11.85;4.20;;;6.40;99.90;;;;;;4992671;28;20031;-67
2022/02/03 21:27:52;;;;;;;11.02;4.43;;;6.40;99.90;;;;;;4992020;28;20030;-67
2022/02/03 21:30:19;;;;;;;9.05;5.03;;;6.50;99.90;;;;;;4994792;28;20029;-67
2022/02/03 21:32:45;;;;;;;4.47;2.35;;;6.40;99.90;;;;;;4989125;28;20101;-67
2022/02/03 21:35:11;;;;;;;10.63;4.28;;;6.40;99.90;;;;;;4993843;28;20023;-67
2022/02/03 21:37:38;;;;;;;5.03;2.55;;;6.40;99.90;;;;;;4992164;28;20074;-67
2022/02/03 21:40:06;;;;;;;8.27;3.45;;;6.50;99.90;;;;;;4994451;28;20034;-67
2022/02/03 21:42:31;;;;;;;24.45;3.80;;;6.50;99.90;;;;;;4994533;28;20053;-67
2022/02/03 21:44:57;;;;;;;5.38;2.42;;;6.50;99.90;;;;;;4995482;28;20109;-67
2022/02/03 21:47:23;;;;;;;8.70;3.67;;;6.50;99.90;;;;;;4986101;28;20095;-67
2022/02/03 21:49:48;;;;;;;8.48;3.20;;;6.50;99.90;;;;;;4993086;28;20032;-67
2022/02/03 21:52:20;;;;;;;13.82;5.75;;;6.50;99.90;;;;;;4994578;28;20040;-67
2022/02/03 21:54:47;;;;;;;12.23;4.97;;;6.50;99.90;;;;;;4995570;28;20069;-67
2022/02/03 21:57:13;;;;;;;10.43;4.00;;;6.50;99.90;;;;;;4990993;28;20034;-67
2022/02/03 21:59:39;;;;;;;17.52;4.85;;;6.50;99.90;;;;;;4995293;28;20030;-67
2022/02/03 22:02:09;;;;;;;7.57;3.45;;;6.50;99.90;;;;;;4987936;28;20462;-67
2022/02/03 22:04:35;;;;;;;;;;;6.60;99.90;;;;;;4990912;28;20104;-67
2022/02/03 22:07:01;;;;;;;12.75;3.80;;;6.50;99.90;;;;;;4985932;28;19925;-67
2022/02/03 22:09:27;;;;;;;7.65;3.33;;;6.60;99.90;;;;;;4990219;28;20026;-67
2022/02/03 22:11:53;;;;;;;12.13;4.60;;;6.60;99.90;;;;;;4988340;28;20038;-67
2022/02/03 22:14:19;;;;;;;2.65;1.80;;;6.60;99.90;;;;;;5005430;28;20121;-67
2022/02/03 22:16:46;;;;;;;11.40;4.57;;;6.60;99.90;;;;;;4989395;28;20035;-67
2022/02/03 22:19:12;;;;;;;10.02;3.88;;;6.50;99.90;;;;;;4987058;28;20026;-67
2022/02/03 22:24:15;;;;;;;9.63;4.57;;;6.60;99.90;;;;;;4993042;28;20406;-67
2022/02/03 22:47:39;;;;;;;8.15;3.10;;;6.60;99.90;;;;;;4986672;28;20486;-67
2022/02/03 22:50:07;;;;;;;6.60;2.13;;;6.70;99.90;;;;;;4993092;28;20026;-67
2022/02/03 22:52:33;;;;;;;9.02;3.88;;;6.70;99.90;;;;;;4993637;28;20042;-68
2022/02/03 22:54:59;;;;;;;10.80;3.83;;;6.60;99.90;;;;;;4987702;28;20034;-67
2022/02/03 22:57:24;;;;;;;8.32;4.03;;;6.60;99.90;;;;;;4985122;28;20034;-67
2022/02/03 23:02:18;;;;;;;10.13;3.20;;;6.60;99.90;;;;;;4986473;28;20521;-67
2022/02/03 23:04:44;;;;;;;3.83;2.30;;;6.60;99.90;;;;;;4984979;28;20033;-67
2022/02/03 23:07:20;;;;;;;8.15;3.17;;;6.70;99.90;;;;;;4987969;28;20129;-67
2022/02/03 23:12:22;;;;;;;4.15;2.33;;;6.70;99.90;;;;;;4989669;28;20034;-67
2022/02/03 23:17:33;;;;;;;5.50;3.20;;;6.70;99.90;;;;;;4992392;28;20077;-67
2022/02/03 23:20:05;;;;;;;8.85;3.45;;;6.60;99.90;;;;;;4989589;28;20041;-67
2022/02/03 23:22:31;;;;;;;12.18;4.25;;;6.60;99.90;;;;;;4988803;28;20027;-67
2022/02/03 23:24:57;;;;;;;7.65;3.80;;;6.60;99.90;;;;;;4991625;28;20037;-67
2022/02/03 23:30:07;;;;;;;3.33;2.70;;;6.60;99.90;;;;;;4989225;28;20076;-67
2022/02/03 23:32:33;;;;;;;9.90;4.10;;;6.60;99.90;;;;;;4990704;28;20185;-67
2022/02/03 23:35:12;;;;;;;5.55;2.63;;;6.60;99.90;;;;;;4991021;28;20034;-67
2022/02/03 23:37:41;;;;;;;10.93;4.30;;;6.60;99.90;;;;;;4990047;28;20443;-67
2022/02/03 23:40:17;;;;;;;10.45;3.97;;;6.60;99.90;;;;;;4986790;28;20034;-67
2022/02/03 23:51:19;;;;;;;12.38;4.55;;;6.70;99.90;;;;;;4998796;28;20520;-67
